Time;durP1;ratioP1;P1;durP2;ratioP2;P2;SDS_P1;SDS_P2;PMS_P1;PMS_P2;Temp;Humidity;BMP_temperature;BMP_pressure;BME280_temperature;BME280_humidity;BME280_pressure;Samples;Min_cycle;Max_cycle;Signal;HPM_P1;HPM_P2
2021/07/03 00:00:47;;;;;;;;;15.00;13.00;;;;;21.00;60.09;100690.94;4973872;28;45437;-59
2021/07/03 00:03:12;;;;;;;;;16.75;13.50;;;;;21.00;59.99;100685.63;4974783;28;47997;-59
2021/07/03 00:05:38;;;;;;;;;13.00;12.50;;;;;21.01;59.96;100689.94;4973978;28;69349;-60
2021/07/03 00:08:04;;;;;;;;;13.25;12.00;;;;;21.02;60.05;100688.91;4974729;28;45271;-59
2021/07/03 00:10:29;;;;;;;;;9.75;9.75;;;;;21.00;60.66;100686.41;4974820;28;45310;-60
2021/07/03 00:12:54;;;;;;;;;11.25;9.25;;;;;21.04;60.57;100689.53;4974268;28;60289;-60
2021/07/03 00:15:21;;;;;;;;;13.50;10.50;;;;;20.99;60.28;100684.78;4972007;28;72128;-59
2021/07/03 00:17:54;;;;;;;;;11.75;11.75;;;;;20.95;60.49;100685.38;4974989;28;45321;-58
2021/07/03 00:20:20;;;;;;;;;13.50;12.25;;;;;20.92;60.60;100689.31;4974644;28;45404;-60
2021/07/03 00:22:46;;;;;;;;;11.50;11.00;;;;;20.92;60.86;100694.63;4974828;28;45577;-60
2021/07/03 00:25:11;;;;;;;;;14.50;12.75;;;;;20.91;60.72;100684.97;4973623;28;73981;-59
2021/07/03 00:27:37;;;;;;;;;11.75;11.00;;;;;20.89;61.10;100690.50;4974717;28;45370;-59
2021/07/03 00:30:03;;;;;;;;;12.00;9.75;;;;;20.88;60.94;100696.88;4974681;28;45181;-59
2021/07/03 00:32:29;;;;;;;;;14.00;13.00;;;;;20.88;61.49;100693.38;4974564;28;45359;-59
2021/07/03 00:34:55;;;;;;;;;13.50;12.00;;;;;20.86;61.17;100701.59;4973623;28;71894;-59
2021/07/03 00:37:20;;;;;;;;;12.00;12.00;;;;;20.84;61.29;100697.47;4973598;28;45322;-59
2021/07/03 00:39:46;;;;;;;;;12.75;11.75;;;;;20.81;60.88;100697.88;5039847;28;45493;-59
2021/07/03 00:42:11;;;;;;;;;12.50;12.00;;;;;20.76;60.93;100691.25;5077162;27;45515;-59
2021/07/03 00:44:37;;;;;;;;;13.25;11.25;;;;;20.74;61.65;100695.13;5076300;27;67267;-59
2021/07/03 00:47:06;;;;;;;;;13.00;12.25;;;;;20.72;60.90;100694.50;5076215;27;64657;-59
2021/07/03 00:49:31;;;;;;;;;13.75;12.25;;;;;20.72;61.05;100698.03;5077043;27;45233;-60
2021/07/03 00:51:57;;;;;;;;;11.25;11.00;;;;;20.70;61.19;100693.88;5077001;27;45601;-60
2021/07/03 00:54:22;;;;;;;;;15.50;12.00;;;;;20.70;61.51;100699.22;5075935;27;69681;-59
2021/07/03 00:56:48;;;;;;;;;12.00;10.50;;;;;20.69;61.35;100693.09;5076737;27;49457;-60
2021/07/03 00:59:14;;;;;;;;;11.00;11.00;;;;;20.66;61.08;100698.00;5077045;27;45365;-59
2021/07/03 01:01:40;;;;;;;;;14.00;14.00;;;;;20.62;61.49;100686.88;5076955;27;45620;-59
2021/07/03 01:04:05;;;;;;;;;16.75;13.25;;;;;20.59;61.00;100680.13;5076609;27;46162;-59
2021/07/03 01:06:31;;;;;;;;;12.75;12.75;;;;;20.55;60.99;100684.19;5076587;28;45343;-59
2021/07/03 01:08:56;;;;;;;;;14.50;11.75;;;;;20.54;61.51;100682.56;5075535;28;45442;-59
2021/07/03 01:11:28;;;;;;;;;10.00;9.50;;;;;20.53;61.42;100686.25;5076576;27;45380;-58
2021/07/03 01:13:53;;;;;;;;;11.00;10.00;;;;;20.49;61.45;100673.47;5076520;27;45997;-59
2021/07/03 01:16:19;;;;;;;;;12.75;12.75;;;;;20.46;61.47;100680.03;5076483;27;45369;-59
2021/07/03 01:18:44;;;;;;;;;11.75;11.25;;;;;;;;5076483;27;45348;-60
2021/07/03 01:21:09;;;;;;;;;11.00;11.00;;;;;20.40;61.27;100676.31;5075826;27;66372;-59
2021/07/03 01:23:35;;;;;;;;;12.00;10.75;;;;;20.38;61.64;100665.03;5057856;28;57939;-59
2021/07/03 01:26:00;;;;;;;;;12.50;11.00;;;;;20.37;61.65;100667.88;5075672;27;67174;-58
2021/07/03 01:28:26;;;;;;;;;11.00;11.00;;;;;20.35;61.49;100672.59;5076541;27;45749;-59
2021/07/03 01:30:52;;;;;;;;;12.75;11.25;;;;;20.34;61.60;100665.59;5076406;27;45469;-59
2021/07/03 01:33:18;;;;;;;;;13.00;12.75;;;;;20.33;61.64;100663.97;5076424;27;47080;-59
2021/07/03 01:35:43;;;;;;;;;12.50;10.75;;;;;20.33;61.23;100661.28;5076296;27;45255;-60
2021/07/03 01:38:09;;;;;;;;;14.00;10.00;;;;;20.30;61.39;100660.66;5076440;27;45460;-59
2021/07/03 01:40:34;;;;;;;;;11.00;11.00;;;;;20.28;61.53;100653.91;5075271;27;70655;-59
2021/07/03 01:42:59;;;;;;;;;11.50;11.50;;;;;20.25;61.88;100655.09;5075542;27;65951;-60
2021/07/03 01:45:25;;;;;;;;;12.25;12.25;;;;;20.23;61.91;100654.47;5075592;27;62664;-59
2021/07/03 01:47:51;;;;;;;;;12.50;12.50;;;;;20.21;61.93;100651.19;5076718;28;45397;-58
2021/07/03 01:50:16;;;;;;;;;14.00;11.00;;;;;20.21;62.04;100651.19;5079769;27;45481;-59
2021/07/03 01:52:42;;;;;;;;;13.00;13.00;;;;;20.20;61.85;100648.72;5079701;27;45334;-59
2021/07/03 01:55:08;;;;;;;;;13.00;12.25;;;;;20.19;61.84;100641.75;5079736;27;45295;-60
2021/07/03 01:57:34;;;;;;;;;13.25;10.50;;;;;20.17;61.88;100649.91;5079817;27;45330;-59
2021/07/03 01:59:59;;;;;;;;;10.25;10.25;;;;;20.14;62.09;100647.66;5079162;27;58318;-59
2021/07/03 02:02:25;;;;;;;;;12.50;11.00;;;;;20.13;61.57;100648.69;5078570;27;69600;-59
2021/07/03 02:04:50;;;;;;;;;14.75;13.00;;;;;20.12;61.86;100644.38;5079609;27;45398;-59
2021/07/03 02:07:15;;;;;;;;;12.50;12.50;;;;;20.12;61.94;100641.72;5078748;27;64536;-60
2021/07/03 02:09:41;;;;;;;;;10.25;9.75;;;;;20.11;61.94;100638.19;5078977;27;60485;-59
2021/07/03 02:12:06;;;;;;;;;11.75;11.00;;;;;20.11;62.09;100640.06;5017841;27;66433;-59
2021/07/03 02:14:31;;;;;;;;;13.00;10.00;;;;;20.13;62.28;100638.03;4976443;28;45451;-59
2021/07/03 02:16:57;;;;;;;;;12.50;11.50;;;;;20.12;61.92;100641.72;4975936;28;57088;-59
2021/07/03 02:19:22;;;;;;;;;11.75;11.50;;;;;20.09;62.26;100634.09;4976033;28;45370;-59
2021/07/03 02:21:48;;;;;;;;;11.25;10.75;;;;;20.09;62.21;100632.25;4976159;28;45327;-59
2021/07/03 02:24:13;;;;;;;;;11.25;11.00;;;;;20.10;62.30;100635.75;4976082;28;45338;-59
2021/07/03 02:26:38;;;;;;;;;13.50;12.50;;;;;20.09;62.11;100628.75;4975741;28;56349;-58
2021/07/03 02:29:04;;;;;;;;;16.25;11.75;;;;;20.10;61.94;100625.06;4976312;28;45236;-60
2021/07/03 02:31:29;;;;;;;;;11.75;11.75;;;;;20.09;61.83;100616.25;4975850;28;45277;-59
2021/07/03 02:33:55;;;;;;;;;12.00;10.00;;;;;20.10;62.12;100625.06;4976061;28;45224;-59
2021/07/03 02:36:20;;;;;;;;;13.75;12.00;;;;;20.09;62.18;100629.56;4974391;28;56106;-60
2021/07/03 02:38:46;;;;;;;;;13.25;12.00;;;;;20.08;62.35;100625.25;4975371;28;62044;-58
2021/07/03 02:41:12;;;;;;;;;11.00;11.00;;;;;20.08;62.33;100630.59;4975722;28;46401;-59
2021/07/03 02:43:37;;;;;;;;;12.00;12.00;;;;;20.07;62.14;100628.94;4975282;28;63396;-59
2021/07/03 02:46:02;;;;;;;;;11.00;10.75;;;;;20.07;62.28;100622.81;4975157;28;64331;-59
2021/07/03 02:48:28;;;;;;;;;12.25;11.00;;;;;20.08;62.28;100624.44;4976119;28;45600;-59
2021/07/03 02:50:53;;;;;;;;;12.50;11.50;;;;;20.07;62.29;100617.47;4974672;28;72321;-59
2021/07/03 02:53:18;;;;;;;;;11.75;11.00;;;;;20.06;62.19;100611.28;4974865;28;68126;-59
2021/07/03 02:55:44;;;;;;;;;12.00;10.25;;;;;20.06;62.50;100621.16;4974934;28;69286;-59
2021/07/03 02:58:09;;;;;;;;;14.00;12.75;;;;;20.02;62.37;100618.88;4975843;28;45432;-59
2021/07/03 03:00:35;;;;;;;;;15.25;12.75;;;;;19.98;62.77;100609.63;4974265;28;69799;-59
2021/07/03 03:03:00;;;;;;;;;11.25;11.00;;;;;19.98;62.53;100614.13;4974555;28;72168;-59
2021/07/03 03:05:25;;;;;;;;;10.50;10.50;;;;;19.95;62.58;100618.00;4975152;28;59937;-59
2021/07/03 03:07:51;;;;;;;;;16.00;13.50;;;;;19.94;62.55;100612.88;4974907;28;60847;-59
2021/07/03 03:10:17;;;;;;;;;12.75;12.00;;;;;19.93;62.29;100608.53;4975463;28;46083;-59
2021/07/03 03:12:43;;;;;;;;;13.00;12.00;;;;;19.92;62.61;100602.41;4974375;28;45330;-59
2021/07/03 03:15:09;;;;;;;;;15.00;11.75;;;;;19.91;62.54;100605.25;4975663;28;45390;-59
2021/07/03 03:17:34;;;;;;;;;13.00;12.00;;;;;19.91;62.41;100608.75;4975615;28;45235;-59
2021/07/03 03:20:00;;;;;;;;;13.25;13.00;;;;;19.88;62.50;100609.13;4974637;28;61715;-59
2021/07/03 03:22:25;;;;;;;;;17.00;16.25;;;;;19.86;63.04;100603.16;4975457;28;45190;-58
2021/07/03 03:24:51;;;;;;;;;15.00;14.00;;;;;19.85;62.84;100599.69;4974748;28;61932;-60
2021/07/03 03:27:16;;;;;;;;;14.50;14.00;;;;;19.85;63.06;100605.00;4974581;28;63973;-59
2021/07/03 03:29:41;;;;;;;;;13.00;11.50;;;;;19.83;62.95;100600.88;4974430;28;70147;-59
2021/07/03 03:32:07;;;;;;;;;12.50;12.00;;;;;19.80;63.17;100602.09;4974359;28;69525;-60
2021/07/03 03:34:32;;;;;;;;;15.25;13.50;;;;;19.80;63.34;100601.28;4975431;28;45258;-59
2021/07/03 03:36:58;;;;;;;;;13.00;12.75;;;;;19.79;63.36;100602.28;4974918;28;53912;-59
2021/07/03 03:39:23;;;;;;;;;17.75;15.25;;;;;19.78;63.59;100600.63;4974194;28;64669;-59
2021/07/03 03:41:48;;;;;;;;;14.25;14.25;;;;;19.78;63.33;100601.47;4974397;28;68710;-60
2021/07/03 03:44:14;;;;;;;;;10.25;8.25;;;;;19.78;63.27;100600.63;4974919;28;56994;-59
2021/07/03 03:46:39;;;;;;;;;11.25;10.50;;;;;19.76;63.38;100602.69;4975432;28;45548;-59
2021/07/03 03:49:04;;;;;;;;;15.50;15.00;;;;;19.75;63.35;100617.88;4974148;28;72006;-59
2021/07/03 03:51:30;;;;;;;;;14.50;13.50;;;;;19.74;63.50;100613.53;4974571;28;56305;-60
2021/07/03 03:53:55;;;;;;;;;13.75;13.50;;;;;19.73;63.36;100612.72;4974628;28;57201;-59
2021/07/03 03:56:21;;;;;;;;;13.25;13.00;;;;;19.72;63.73;100615.59;4974561;28;57333;-59
2021/07/03 03:58:46;;;;;;;;;16.25;13.75;;;;;19.71;63.88;100620.06;4974145;28;70758;-58
2021/07/03 04:01:11;;;;;;;;;15.00;14.50;;;;;19.71;63.65;100617.41;4974411;28;62326;-59
2021/07/03 04:03:37;;;;;;;;;13.50;13.00;;;;;19.72;63.95;100623.59;4974196;28;62327;-59
2021/07/03 04:06:02;;;;;;;;;16.75;13.00;;;;;19.73;64.06;100614.56;4974382;28;61521;-59
2021/07/03 04:08:27;;;;;;;;;14.00;12.50;;;;;19.76;63.91;100626.66;4974827;28;46809;-59
2021/07/03 04:10:53;;;;;;;;;11.50;11.25;;;;;19.78;63.49;100624.63;4973474;28;45219;-59
2021/07/03 04:13:18;;;;;;;;;13.50;12.75;;;;;19.81;63.00;100621.56;4972780;28;63442;-59
2021/07/03 04:15:44;;;;;;;;;14.50;11.50;;;;;19.82;62.87;100624.06;4974851;28;45511;-59
2021/07/03 04:18:09;;;;;;;;;18.00;13.75;;;;;19.85;62.94;100612.16;4973689;28;71438;-58
2021/07/03 04:20:34;;;;;;;;;17.25;15.50;;;;;19.87;63.09;100612.81;4974135;28;53652;-58
2021/07/03 04:23:00;;;;;;;;;13.75;12.25;;;;;19.91;62.71;100618.59;4974145;28;57737;-59
2021/07/03 04:25:25;;;;;;;;;15.75;13.50;;;;;19.92;62.58;100625.56;4973783;28;69985;-59
2021/07/03 04:27:51;;;;;;;;;12.75;12.00;;;;;19.92;63.12;100626.41;4974553;28;45296;-59
2021/07/03 04:30:16;;;;;;;;;14.00;12.00;;;;;19.95;62.72;100630.50;4973905;28;59568;-60
2021/07/03 04:32:42;;;;;;;;;13.00;13.00;;;;;19.97;62.76;100631.97;4974711;28;45458;-59
2021/07/03 04:35:08;;;;;;;;;13.75;12.25;;;;;19.98;62.67;100630.97;4974688;28;45399;-59
2021/07/03 04:37:34;;;;;;;;;12.75;12.00;;;;;19.99;62.93;100635.28;4974271;28;46468;-58
2021/07/03 04:39:59;;;;;;;;;12.75;10.50;;;;;20.00;63.68;100636.09;4974216;28;53672;-59
2021/07/03 04:42:25;;;;;;;;;12.75;12.75;;;;;20.02;62.99;100636.72;4973584;28;66560;-59
2021/07/03 04:44:50;;;;;;;;;15.75;13.25;;;;;20.02;63.06;100637.56;4973931;28;58294;-59
2021/07/03 04:47:15;;;;;;;;;13.75;13.25;;;;;20.02;63.18;100640.22;4973559;28;66997;-59
2021/07/03 04:49:41;;;;;;;;;13.25;11.50;;;;;20.04;63.59;100647.19;4973645;28;61838;-58
2021/07/03 04:52:06;;;;;;;;;14.25;11.25;;;;;20.03;63.25;100646.34;4973594;28;59960;-59
2021/07/03 04:54:32;;;;;;;;;13.50;12.50;;;;;20.02;63.62;100653.56;4974495;28;45467;-59
2021/07/03 04:57:11;;;;;;;;;13.50;12.25;;;;;20.02;63.60;100648.22;4976229;27;45426;-60
2021/07/03 04:59:40;;;;;;;;;12.00;12.00;;;;;20.03;63.29;100643.69;4974406;28;45860;-59
2021/07/03 05:02:08;;;;;;;;;13.25;13.00;;;;;20.03;63.42;100654.34;4974263;28;45338;-59
2021/07/03 05:04:34;;;;;;;;;14.00;10.75;;;;;20.06;63.46;100658.50;4974230;28;45485;-59
2021/07/03 05:06:59;;;;;;;;;13.50;12.00;;;;;20.07;63.84;100652.94;4973872;28;45319;-59
2021/07/03 05:09:25;;;;;;;;;13.00;12.00;;;;;20.09;63.41;100647.44;4973665;28;46579;-59
2021/07/03 05:11:50;;;;;;;;;13.25;12.50;;;;;20.11;62.52;100645.41;4974051;28;45442;-59
2021/07/03 05:14:16;;;;;;;;;13.50;12.50;;;;;20.13;62.82;100638.03;4974047;28;45555;-59
2021/07/03 05:16:41;;;;;;;;;11.00;11.00;;;;;20.16;62.87;100642.94;4973766;28;52025;-59
2021/07/03 05:19:06;;;;;;;;;13.50;10.00;;;;;20.21;62.61;100643.16;4972870;28;72073;-59
2021/07/03 05:21:32;;;;;;;;;12.25;12.25;;;;;20.24;63.36;100645.44;4973656;28;45376;-59
2021/07/03 05:23:57;;;;;;;;;12.00;11.00;;;;;20.28;62.68;100644.03;4973518;28;45529;-59
2021/07/03 05:26:23;;;;;;;;;15.25;12.50;;;;;20.33;63.15;100646.13;4973113;28;64379;-59
2021/07/03 05:28:48;;;;;;;;;11.25;11.25;;;;;20.37;62.77;100641.19;4973057;28;62900;-58
2021/07/03 05:31:13;;;;;;;;;11.75;11.00;;;;;20.41;62.65;100639.78;4973245;28;59151;-59
2021/07/03 05:33:39;;;;;;;;;11.50;9.75;;;;;20.44;62.23;100634.84;4972813;28;70189;-59
2021/07/03 05:36:04;;;;;;;;;14.75;11.25;;;;;20.51;62.39;100644.75;4972977;28;64212;-59
2021/07/03 05:38:30;;;;;;;;;16.50;12.00;;;;;20.54;61.81;100637.19;4972675;28;62543;-59
2021/07/03 05:41:00;;;;;;;;;10.00;9.25;;;;;20.59;62.05;100634.72;4973785;28;45337;-58
2021/07/03 05:43:27;;;;;;;;;16.00;12.75;;;;;20.64;62.10;100630.63;4973734;28;45181;-59
2021/07/03 05:45:52;;;;;;;;;12.75;12.50;;;;;20.70;61.15;100616.47;4972518;28;75500;-59
2021/07/03 05:48:18;;;;;;;;;11.50;11.50;;;;;20.74;61.30;100623.06;4973480;28;45370;-59
2021/07/03 05:50:43;;;;;;;;;11.75;11.75;;;;;20.80;61.69;100626.81;4971411;28;64968;-60
2021/07/03 05:53:08;;;;;;;;;18.50;15.00;;;;;20.83;61.00;100618.41;4972682;28;68544;-59
2021/07/03 05:55:34;;;;;;;;;11.00;10.75;;;;;20.85;61.20;100619.81;4972696;28;65611;-59
2021/07/03 05:57:59;;;;;;;;;14.75;11.00;;;;;20.88;61.14;100619.41;4972850;28;45400;-59
2021/07/03 06:00:25;;;;;;;;;12.00;11.75;;;;;20.92;60.85;100619.03;5074234;28;45370;-58
2021/07/03 06:02:50;;;;;;;;;12.75;12.75;;;;;20.95;60.57;100621.28;5076062;27;45350;-60
2021/07/03 06:05:16;;;;;;;;;12.25;11.25;;;;;20.98;60.93;100616.34;5075782;27;46992;-58
2021/07/03 06:07:41;;;;;;;;;12.00;12.00;;;;;21.00;60.70;100613.50;5075876;27;45278;-59
2021/07/03 06:10:07;;;;;;;;;15.00;13.50;;;;;21.03;60.77;100613.09;5073225;27;45395;-59
2021/07/03 06:12:32;;;;;;;;;13.25;12.50;;;;;21.04;60.83;100609.38;4973163;28;45319;-59
2021/07/03 06:14:58;;;;;;;;;16.50;13.00;;;;;21.06;61.11;100610.00;4972061;28;71716;-59
2021/07/03 06:17:23;;;;;;;;;14.50;12.50;;;;;21.09;60.45;100612.28;4972145;28;67305;-58
2021/07/03 06:19:48;;;;;;;;;11.75;11.00;;;;;21.12;60.44;100601.19;4972042;28;68265;-59
2021/07/03 06:22:14;;;;;;;;;12.25;12.25;;;;;21.17;60.66;100612.09;4972182;28;59131;-59
2021/07/03 06:24:43;;;;;;;;;12.25;12.25;;;;;21.24;60.24;100611.22;4972901;28;45912;-59
2021/07/03 06:27:08;;;;;;;;;12.00;11.50;;;;;21.29;59.54;100611.44;4989872;28;45499;-59
2021/07/03 06:29:36;;;;;;;;;14.00;13.00;;;;;21.33;59.65;100612.69;5023450;27;45436;-59
2021/07/03 06:32:03;;;;;;;;;16.25;15.00;;;;;21.41;60.03;100612.47;4972933;28;45327;-59
2021/07/03 06:34:28;;;;;;;;;14.75;11.25;;;;;21.50;59.31;100621.94;4972929;28;45807;-59
2021/07/03 06:36:54;;;;;;;;;16.25;13.25;;;;;21.62;59.21;100632.03;4974404;28;69975;-58
2021/07/03 06:39:19;;;;;;;;;11.75;11.75;;;;;21.70;58.92;100642.53;4975286;28;60875;-59
2021/07/03 06:41:45;;;;;;;;;14.00;12.50;;;;;21.81;58.81;100640.22;4975167;28;45488;-59
2021/07/03 06:44:10;;;;;;;;;11.50;11.25;;;;;21.90;59.25;100647.84;4974770;28;70791;-59
2021/07/03 06:46:35;;;;;;;;;12.00;12.00;;;;;21.99;58.97;100639.59;4975671;28;45166;-59
2021/07/03 06:49:01;;;;;;;;;14.75;13.25;;;;;22.07;59.40;100647.38;4975939;28;45296;-59
2021/07/03 06:51:26;;;;;;;;;12.75;12.00;;;;;22.16;59.35;100642.63;4975041;28;64278;-59
2021/07/03 06:53:54;;;;;;;;;12.25;12.25;;;;;22.23;58.52;100640.75;4974937;28;72600;-59
2021/07/03 06:56:19;;;;;;;;;12.25;12.25;;;;;22.30;58.70;100636.19;4975751;28;45440;-60
2021/07/03 06:58:44;;;;;;;;;13.50;13.00;;;;;22.35;57.75;100638.25;4975940;28;45385;-59
2021/07/03 07:01:10;;;;;;;;;16.50;14.75;;;;;22.41;58.67;100637.41;4975076;28;60876;-59
2021/07/03 07:03:35;;;;;;;;;13.75;13.75;;;;;22.44;57.59;100650.38;4975467;28;46215;-59
2021/07/03 07:06:01;;;;;;;;;13.25;13.00;;;;;22.46;57.87;100647.50;4974829;28;62107;-59
2021/07/03 07:08:27;;;;;;;;;13.00;11.50;;;;;22.50;58.81;100654.91;4975858;28;45362;-59
2021/07/03 07:10:52;;;;;;;;;14.50;12.00;;;;;22.53;58.77;100662.47;4974514;28;45489;-59
2021/07/03 07:13:18;;;;;;;;;13.00;11.25;;;;;22.57;58.93;100662.06;4973485;28;64380;-59
2021/07/03 07:15:43;;;;;;;;;12.75;11.75;;;;;22.58;58.14;100661.03;4972512;28;45725;-58
2021/07/03 07:18:09;;;;;;;;;13.50;13.50;;;;;22.61;58.39;100653.41;4974032;28;45388;-60
2021/07/03 07:20:34;;;;;;;;;16.00;15.00;;;;;22.67;57.58;100652.56;4974114;28;45355;-59
2021/07/03 07:23:00;;;;;;;;;14.75;14.75;;;;;22.71;57.05;100655.59;4973692;28;60786;-59
2021/07/03 07:25:25;;;;;;;;;13.00;11.75;;;;;22.77;56.60;100662.78;4973869;28;57876;-59
2021/07/03 07:27:50;;;;;;;;;15.50;14.00;;;;;22.81;56.59;100655.97;4975636;28;45335;-60
2021/07/03 07:30:19;;;;;;;;;12.75;11.75;;;;;22.87;56.97;100665.00;4974737;28;58591;-60
2021/07/03 07:32:44;;;;;;;;;15.75;13.00;;;;;22.92;57.16;100675.09;4973695;28;45908;-59
2021/07/03 07:35:10;;;;;;;;;11.00;10.50;;;;;22.98;58.28;100663.50;4973699;28;49819;-59
2021/07/03 07:37:35;;;;;;;;;16.00;13.00;;;;;23.03;57.70;100665.53;4974116;28;45471;-59
2021/07/03 07:40:00;;;;;;;;;15.75;14.50;;;;;23.08;57.26;100668.38;4973436;28;65696;-59
2021/07/03 07:42:26;;;;;;;;;16.25;14.25;;;;;23.13;57.28;100672.06;4974055;28;45890;-59
2021/07/03 07:44:51;;;;;;;;;14.75;14.25;;;;;23.19;57.03;100666.88;4974115;28;45540;-59
2021/07/03 07:47:17;;;;;;;;;14.00;14.00;;;;;23.21;56.80;100675.50;4975131;28;45418;-60
2021/07/03 07:49:42;;;;;;;;;16.50;16.00;;;;;23.23;55.99;100670.78;4974444;28;59086;-60
2021/07/03 07:52:07;;;;;;;;;13.50;13.25;;;;;23.27;56.64;100675.50;4973987;28;60840;-59
2021/07/03 07:54:33;;;;;;;;;20.25;16.50;;;;;23.30;56.67;100684.16;4972976;28;64016;-59
2021/07/03 07:56:59;;;;;;;;;14.50;14.50;;;;;23.33;56.85;100687.22;4973807;28;60498;-59
2021/07/03 07:59:27;;;;;;;;;11.00;11.00;;;;;23.36;57.38;100681.41;4975183;28;45339;-59
2021/07/03 08:01:53;;;;;;;;;14.50;13.50;;;;;23.37;56.54;100674.19;4995369;28;45421;-59
2021/07/03 08:04:18;;;;;;;;;12.75;12.75;;;;;23.38;56.62;100687.38;5057159;27;51967;-59
2021/07/03 08:06:44;;;;;;;;;12.25;11.75;;;;;23.39;56.24;100691.72;5038425;27;45356;-60
2021/07/03 08:09:09;;;;;;;;;15.50;12.25;;;;;23.42;56.07;100685.06;5049969;28;63273;-59
2021/07/03 08:11:35;;;;;;;;;14.75;11.00;;;;;23.43;56.45;100678.69;4995827;27;62495;-60
2021/07/03 08:14:00;;;;;;;;;14.00;12.75;;;;;23.46;55.59;100680.91;5006658;27;45403;-60
2021/07/03 08:16:25;;;;;;;;;12.25;12.25;;;;;23.49;56.27;100680.50;5013983;27;54603;-60
2021/07/03 08:18:51;;;;;;;;;19.00;13.50;;;;;23.52;55.91;100674.69;4996379;28;45529;-59
2021/07/03 08:21:17;;;;;;;;;14.00;13.25;;;;;23.55;55.67;100668.09;4988133;27;72549;-60
2021/07/03 08:23:42;;;;;;;;;13.50;12.50;;;;;23.56;55.65;100659.81;4981420;28;45449;-59
2021/07/03 08:26:07;;;;;;;;;11.00;10.50;;;;;23.58;55.44;100653.41;4993687;28;45507;-59
2021/07/03 08:28:33;;;;;;;;;12.75;11.25;;;;;23.62;56.21;100662.66;4985053;28;48331;-59
2021/07/03 08:30:58;;;;;;;;;14.75;13.00;;;;;23.65;56.14;100668.38;4982323;28;70796;-59
2021/07/03 08:33:24;;;;;;;;;14.50;13.00;;;;;23.65;55.56;100673.75;4988797;28;58393;-59
2021/07/03 08:35:49;;;;;;;;;20.50;18.75;;;;;23.66;55.57;100674.59;4989967;28;64890;-59
2021/07/03 08:38:16;;;;;;;;;15.00;13.50;;;;;23.66;55.46;100674.59;5005331;28;63557;-59
2021/07/03 08:40:41;;;;;;;;;13.25;12.00;;;;;23.66;56.61;100674.59;4983302;28;45491;-59
2021/07/03 08:43:07;;;;;;;;;14.00;14.00;;;;;23.67;56.23;100679.72;4999322;28;56320;-59
2021/07/03 08:45:32;;;;;;;;;11.75;11.75;;;;;23.68;56.84;100680.53;4988095;27;57399;-59
2021/07/03 08:47:58;;;;;;;;;17.25;15.50;;;;;23.68;56.25;100678.66;4994096;27;45586;-59
2021/07/03 08:50:23;;;;;;;;;13.00;13.00;;;;;23.67;55.80;100685.06;4991690;27;45894;-59
2021/07/03 08:52:48;;;;;;;;;15.00;13.75;;;;;23.69;55.44;100679.50;5012335;28;45525;-59
2021/07/03 08:55:19;;;;;;;;;16.25;14.00;;;;;23.70;54.31;100678.47;5003774;27;45500;-58
2021/07/03 08:57:50;;;;;;;;;13.75;12.00;;;;;23.69;53.48;100674.94;4995737;27;45232;-60
2021/07/03 09:00:17;;;;;;;;;14.00;11.25;;;;;23.69;53.02;100674.16;4996101;28;46383;-60
2021/07/03 09:02:44;;;;;;;;;17.25;15.00;;;;;23.69;53.26;100674.16;4993887;28;45986;-59
2021/07/03 09:05:30;;;;;;;;;14.25;12.75;;;;;23.66;54.67;100666.53;4984125;28;45532;-60
2021/07/03 09:07:57;;;;;;;;;20.00;19.00;;;;;23.62;54.75;100673.38;4990758;28;45584;-59
2021/07/03 09:10:23;;;;;;;;;18.00;14.25;;;;;23.61;54.10;100677.09;4992610;28;46280;-59
2021/07/03 09:12:50;;;;;;;;;17.00;12.75;;;;;23.56;54.02;100681.25;4994440;28;46479;-59
2021/07/03 09:15:17;;;;;;;;;16.25;13.50;;;;;23.54;54.63;100682.53;4975593;28;45291;-59
2021/07/03 09:17:46;;;;;;;;;15.00;13.75;;;;;23.51;53.82;100686.44;4990826;28;45506;-59
2021/07/03 09:20:11;;;;;;;;;13.50;12.75;;;;;23.48;54.20;100688.75;4982781;28;46177;-60
2021/07/03 09:22:37;;;;;;;;;12.50;12.25;;;;;23.46;53.88;100680.91;4981135;28;45560;-60
2021/07/03 09:25:14;;;;;;;;;14.25;13.25;;;;;23.48;53.59;100689.56;4996017;28;62540;-59
2021/07/03 09:27:39;;;;;;;;;21.50;16.25;;;;;23.48;54.25;100683.41;4983029;28;45509;-60
2021/07/03 09:30:05;;;;;;;;;17.00;12.75;;;;;23.49;54.32;100687.72;4989367;28;72842;-59
2021/07/03 09:32:31;;;;;;;;;12.50;12.50;;;;;23.49;53.86;100680.50;4990910;28;45469;-59
2021/07/03 09:34:56;;;;;;;;;14.25;11.25;;;;;23.48;53.72;100684.22;5044543;27;58581;-60
2021/07/03 09:37:21;;;;;;;;;15.75;13.75;;;;;23.49;53.78;100688.53;4993902;28;60984;-60
2021/07/03 09:39:47;;;;;;;;;13.75;12.00;;;;;23.49;53.95;100688.53;5004527;28;67176;-59
2021/07/03 09:42:13;;;;;;;;;11.75;11.75;;;;;23.51;53.59;100685.66;5019136;27;62864;-59
2021/07/03 09:44:39;;;;;;;;;14.25;14.00;;;;;23.53;54.38;100684.38;5017490;28;45564;-59
2021/07/03 09:47:04;;;;;;;;;18.75;13.50;;;;;23.54;53.81;100694.06;5024203;27;45531;-59
2021/07/03 09:49:30;;;;;;;;;14.50;14.00;;;;;23.55;53.50;100686.84;4993389;27;61600;-60
2021/07/03 09:51:56;;;;;;;;;9.75;9.75;;;;;23.55;53.75;100689.53;5008511;28;64480;-60
2021/07/03 09:54:29;;;;;;;;;15.25;13.00;;;;;23.56;54.19;100693.88;4977033;28;45620;-59
2021/07/03 09:57:00;;;;;;;;;13.25;11.50;;;;;23.57;54.32;100692.81;4979233;28;45970;-60
2021/07/03 09:59:28;;;;;;;;;14.25;12.25;;;;;23.57;54.25;100695.50;4975241;27;45417;-60
2021/07/03 10:01:54;;;;;;;;;13.50;10.50;;;;;23.57;53.38;100700.88;4967144;28;45741;-60
2021/07/03 10:04:19;;;;;;;;;14.25;13.75;;;;;23.59;54.00;100708.69;4984809;28;45451;-60
2021/07/03 10:07:04;;;;;;;;;29.00;25.00;;;;;23.56;53.58;100704.59;4976402;28;63087;-60
2021/07/03 10:09:36;;;;;;;;;18.50;16.00;;;;;23.56;53.53;100707.28;4977324;28;45446;-60
2021/07/03 10:12:22;;;;;;;;;10.75;10.75;;;;;23.56;54.61;100707.28;4982539;28;45534;-58
2021/07/03 10:14:47;;;;;;;;;13.00;12.75;;;;;23.55;55.02;100714.47;4972737;28;45511;-60
2021/07/03 10:17:21;;;;;;;;;12.25;12.25;;;;;23.53;55.13;100716.56;4966691;28;45422;-60
2021/07/03 10:19:47;;;;;;;;;11.50;11.00;;;;;23.53;55.34;100719.25;4981392;28;53535;-60
2021/07/03 10:22:12;;;;;;;;;9.00;9.00;;;;;23.53;55.57;100716.56;4975437;28;45586;-59
2021/07/03 10:25:09;;;;;;;;;13.00;13.00;;;;;23.55;54.40;100714.47;4988258;28;45732;-59
2021/07/03 10:27:35;;;;;;;;;10.50;10.25;;;;;23.58;54.25;100717.75;4990955;28;45448;-59
2021/07/03 10:30:03;;;;;;;;;11.50;10.00;;;;;23.60;54.25;100718.38;4975996;28;68295;-59
2021/07/03 10:32:30;;;;;;;;;16.50;14.25;;;;;23.62;53.40;100710.94;5005151;28;50102;-60
2021/07/03 10:35:08;;;;;;;;;16.25;15.00;;;;;23.65;53.37;100703.25;5001906;28;45280;-60
2021/07/03 10:37:33;;;;;;;;;13.50;13.00;;;;;23.69;54.08;100695.59;5010324;28;45480;-60
2021/07/03 10:39:59;;;;;;;;;20.50;16.25;;;;;23.73;53.89;100698.66;5003228;28;45777;-60
2021/07/03 10:42:34;;;;;;;;;18.75;16.75;;;;;23.79;53.62;100701.28;5017327;27;45396;-60
2021/07/03 10:45:09;;;;;;;;;18.50;17.00;;;;;23.87;52.98;100700.19;5009378;28;63921;-60
2021/07/03 10:47:35;;;;;;;;;14.00;12.50;;;;;23.93;52.70;100701.16;5000532;28;45560;-59
2021/07/03 10:50:01;;;;;;;;;17.25;16.00;;;;;23.96;53.22;100700.72;5023802;27;45908;-60
2021/07/03 10:52:37;;;;;;;;;12.50;11.50;;;;;24.00;53.68;100702.78;5019720;28;45466;-59
2021/07/03 10:55:02;;;;;;;;;15.00;13.00;;;;;24.03;53.40;100701.50;5018501;27;45398;-60
2021/07/03 10:57:28;;;;;;;;;14.00;12.50;;;;;24.08;53.59;100698.97;4991940;28;45443;-59
2021/07/03 11:00:00;;;;;;;;;14.00;11.75;;;;;24.12;52.99;100694.81;4978356;28;65564;-59
2021/07/03 11:02:29;;;;;;;;;14.75;14.25;;;;;24.18;52.96;100701.13;4994517;28;45449;-59
2021/07/03 11:04:55;;;;;;;;;13.75;13.50;;;;;24.25;52.65;100701.09;4973496;28;45405;-58